createdAt,value
2018-04-22T00:24:54.173Z,618.20
2018-04-22T00:27:26.821Z,595.63
2018-04-22T00:29:59.170Z,591.63
2018-04-22T00:32:31.011Z,550.23
2018-04-22T00:35:03.550Z,539.10
2018-04-22T00:37:35.712Z,524.70
2018-04-22T00:40:08.439Z,506.73
2018-04-22T00:42:41.877Z,506.83
2018-04-22T00:45:17.327Z,486.23
2018-04-22T00:47:49.992Z,466.03
2018-04-22T00:50:22.295Z,476.17
2018-04-22T00:52:54.882Z,469.93
2018-04-22T00:55:29.945Z,446.17
2018-04-22T00:58:02.817Z,447.10
2018-04-22T01:00:36.461Z,440.57
2018-04-22T01:03:09.137Z,423.17
2018-04-22T01:05:40.960Z,412.63
2018-04-22T01:08:13.255Z,435.27
2018-04-22T01:10:47.978Z,411.17
2018-04-22T01:13:19.920Z,395.90
2018-04-22T01:15:54.113Z,410.07
2018-04-22T01:18:28.175Z,402.50
2018-04-22T01:21:02.800Z,387.63
2018-04-22T01:23:35.837Z,383.07
2018-04-22T01:26:08.318Z,394.30
2018-04-22T01:28:40.901Z,405.53
2018-04-22T01:31:12.946Z,378.17
2018-04-22T01:33:44.944Z,363.93
2018-04-22T01:36:18.843Z,387.23
2018-04-22T01:38:52.667Z,381.27
2018-04-22T01:41:25.166Z,375.30
2018-04-22T01:43:58.141Z,384.13
2018-04-22T01:46:31.426Z,394.80
2018-04-22T01:49:04.100Z,423.33
2018-04-22T01:51:37.262Z,432.10
2018-04-22T01:54:10.696Z,432.10
2018-04-22T01:56:43.637Z,430.03
2018-04-22T01:59:17.522Z,406.43
2018-04-22T02:01:50.105Z,388.90
2018-04-22T02:04:24.139Z,397.90
2018-04-22T02:06:56.003Z,407.27
2018-04-22T02:09:29.657Z,413.00
2018-04-22T02:12:02.167Z,409.27
2018-04-22T02:14:35.018Z,410.10
2018-04-22T02:17:07.035Z,406.10
2018-04-22T02:19:39.856Z,408.87
2018-04-22T02:22:13.941Z,383.20
2018-04-22T02:24:47.237Z,402.73
2018-04-22T02:27:19.739Z,405.43
2018-04-22T02:29:52.036Z,429.30
2018-04-22T02:32:24.552Z,436.23
2018-04-22T02:34:57.596Z,400.30
2018-04-22T02:37:29.439Z,416.53
2018-04-22T02:40:02.142Z,407.57
2018-04-22T02:42:34.876Z,411.20
2018-04-22T02:45:07.995Z,408.77
2018-04-22T02:47:40.496Z,427.87
2018-04-22T02:50:12.357Z,427.53
2018-04-22T02:52:45.324Z,419.93
2018-04-22T02:55:18.197Z,409.77
2018-04-22T02:57:50.379Z,407.47
2018-04-22T03:00:23.276Z,391.27
2018-04-22T03:02:55.418Z,389.40
2018-04-22T03:05:28.775Z,403.23
2018-04-22T03:08:00.733Z,402.13
2018-04-22T03:10:32.773Z,386.53
2018-04-22T03:13:04.872Z,390.53
2018-04-22T03:15:37.534Z,396.70
2018-04-22T03:18:11.993Z,393.90
2018-04-22T03:20:44.438Z,383.30
2018-04-22T03:23:17.094Z,390.77
2018-04-22T03:25:49.376Z,383.77
2018-04-22T03:28:21.943Z,363.23
2018-04-22T03:30:55.456Z,379.80
2018-04-22T03:33:28.436Z,370.77
2018-04-22T03:36:01.793Z,384.87
2018-04-22T03:38:33.972Z,376.97
2018-04-22T03:41:08.453Z,393.27
2018-04-22T03:43:41.170Z,375.37
2018-04-22T03:46:13.200Z,380.07
2018-04-22T03:48:45.584Z,367.83
2018-04-22T03:51:18.113Z,367.50
2018-04-22T03:53:50.953Z,359.67
2018-04-22T03:56:24.298Z,362.17
2018-04-22T03:58:57.516Z,364.80
2018-04-22T04:01:29.340Z,375.57
2018-04-22T04:04:02.278Z,366.67
2018-04-22T04:06:34.977Z,359.13
2018-04-22T04:09:09.345Z,365.10
2018-04-22T04:11:41.896Z,363.07
2018-04-22T04:14:14.532Z,360.60
2018-04-22T04:16:47.257Z,359.63
2018-04-22T04:19:35.795Z,348.60
2018-04-22T04:22:24.416Z,380.37
2018-04-22T04:28:09.636Z,369.80
2018-04-22T04:30:43.038Z,367.87
2018-04-22T04:33:15.852Z,364.10
2018-04-22T04:35:47.774Z,363.83
2018-04-22T04:38:21.600Z,344.83
2018-04-22T04:40:54.256Z,365.60
2018-04-22T04:43:29.070Z,356.57
2018-04-22T04:46:02.235Z,352.90
2018-04-22T04:48:34.373Z,342.93
2018-04-22T04:51:06.832Z,345.07
2018-04-22T04:53:39.327Z,360.30
2018-04-22T04:56:12.136Z,350.30
2018-04-22T04:58:44.678Z,343.17
2018-04-22T05:01:17.416Z,357.40
2018-04-22T05:03:50.857Z,348.10
2018-04-22T05:06:22.656Z,342.30
2018-04-22T05:08:57.155Z,337.47
2018-04-22T05:11:30.356Z,346.03
2018-04-22T05:14:05.179Z,358.27
2018-04-22T05:16:37.918Z,352.97
2018-04-22T05:19:11.173Z,354.50
2018-04-22T05:21:43.356Z,349.93
2018-04-22T05:24:15.796Z,359.73
2018-04-22T05:26:50.089Z,352.83
2018-04-22T05:29:21.042Z,345.87
2018-04-22T05:31:53.659Z,333.23
2018-04-22T05:34:26.877Z,337.67
2018-04-22T05:37:00.314Z,343.97
2018-04-22T05:39:33.737Z,345.83
2018-04-22T05:42:07.139Z,335.70
2018-04-22T05:44:39.252Z,321.10
2018-04-22T05:47:12.537Z,329.37
2018-04-22T05:49:45.674Z,337.87
2018-04-22T05:52:18.976Z,328.43
2018-04-22T05:54:51.443Z,312.13
2018-04-22T05:57:23.879Z,304.07
2018-04-22T05:59:56.897Z,271.07
2018-04-22T06:02:28.570Z,261.60
2018-04-22T06:04:59.632Z,307.00
2018-04-22T06:07:32.441Z,298.43
2018-04-22T06:10:04.275Z,260.17
2018-04-22T06:12:35.997Z,253.60
2018-04-22T06:15:07.977Z,258.73
2018-04-22T06:17:39.733Z,248.77
2018-04-22T06:20:11.638Z,230.27
2018-04-22T06:22:45.613Z,229.47
2018-04-22T06:25:18.698Z,208.63
2018-04-22T06:27:51.233Z,201.07
2018-04-22T06:30:24.656Z,198.87
2018-04-22T06:32:58.437Z,187.23
2018-04-22T06:35:30.976Z,211.63
2018-04-22T06:38:02.904Z,244.80
2018-04-22T06:40:36.519Z,270.17
2018-04-22T06:43:08.737Z,266.27
2018-04-22T06:45:40.434Z,236.10
2018-04-22T06:48:13.056Z,221.47
2018-04-22T06:50:46.155Z,183.73
2018-04-22T06:53:19.463Z,146.90
2018-04-22T06:55:51.641Z,161.47
2018-04-22T06:58:24.020Z,192.57
2018-04-22T07:00:57.013Z,233.27
2018-04-22T07:03:28.559Z,193.67
2018-04-22T07:06:00.437Z,219.70
2018-04-22T07:08:32.338Z,201.10
2018-04-22T07:11:04.274Z,199.13
2018-04-22T07:13:36.016Z,211.43
2018-04-22T07:16:08.300Z,205.77
2018-04-22T07:18:39.615Z,178.53
2018-04-22T07:21:11.516Z,191.77
2018-04-22T07:23:43.010Z,203.67
2018-04-22T07:26:15.015Z,210.60
2018-04-22T07:28:47.261Z,211.97
2018-04-22T07:31:19.939Z,209.53
2018-04-22T07:33:52.002Z,203.17
2018-04-22T07:36:24.815Z,222.27
2018-04-22T07:38:56.477Z,199.93
2018-04-22T07:41:28.439Z,224.60
2018-04-22T07:44:00.434Z,247.63
2018-04-22T07:46:32.857Z,225.00
2018-04-22T07:49:05.379Z,267.80
2018-04-22T07:51:37.624Z,259.03
2018-04-22T07:54:10.092Z,265.37
2018-04-22T07:56:41.454Z,264.77
2018-04-22T07:59:14.018Z,292.10
2018-04-22T08:01:45.852Z,270.43
2018-04-22T08:04:17.797Z,359.50
2018-04-22T08:06:50.486Z,343.80
2018-04-22T08:09:22.918Z,1420.18
2018-04-22T08:11:56.340Z,622.83
2018-04-22T08:14:30.225Z,644.73
2018-04-22T08:17:02.456Z,525.60
2018-04-22T08:19:36.459Z,1505.73
2018-04-22T08:22:08.657Z,725.50
2018-04-22T08:24:40.658Z,516.20
2018-04-22T08:27:13.338Z,641.30
2018-04-22T08:29:45.401Z,598.73
2018-04-22T08:32:19.754Z,444.47
2018-04-22T08:34:54.337Z,505.10
2018-04-22T08:37:28.119Z,501.87
2018-04-22T08:40:00.876Z,457.73
2018-04-22T08:42:34.637Z,437.13
2018-04-22T08:45:11.023Z,394.40
2018-04-22T08:47:45.103Z,416.60
2018-04-22T08:50:18.794Z,429.70
2018-04-22T08:52:52.722Z,463.57
2018-04-22T08:55:26.202Z,447.43
2018-04-22T08:57:58.378Z,482.43
2018-04-22T09:00:33.973Z,371.60
2018-04-22T09:03:07.063Z,448.90
2018-04-22T09:05:41.112Z,492.50
2018-04-22T09:08:14.554Z,453.67
2018-04-22T09:10:46.873Z,430.83
2018-04-22T09:13:20.634Z,370.33
2018-04-22T09:15:53.818Z,451.20
2018-04-22T09:18:26.718Z,400.43
2018-04-22T09:21:00.255Z,453.57
2018-04-22T09:23:34.658Z,445.77
2018-04-22T09:26:08.980Z,408.70
2018-04-22T09:28:41.217Z,410.40
2018-04-22T09:31:15.455Z,487.93
2018-04-22T09:33:48.656Z,493.33
2018-04-22T09:36:21.415Z,539.63
2018-04-22T09:38:55.694Z,459.17
2018-04-22T09:41:28.974Z,476.03
2018-04-22T09:44:02.651Z,504.30
2018-04-22T09:46:36.658Z,496.10
2018-04-22T09:49:09.677Z,490.47
2018-04-22T09:51:43.582Z,550.47
2018-04-22T09:54:16.620Z,482.23
2018-04-22T09:56:50.534Z,338.27
2018-04-22T09:59:22.816Z,506.87
2018-04-22T10:01:57.897Z,437.80
2018-04-22T10:04:33.777Z,293.33
2018-04-22T10:07:08.237Z,283.53
2018-04-22T10:09:41.652Z,290.13
2018-04-22T10:12:16.257Z,469.60
2018-04-22T10:14:49.751Z,366.63
2018-04-22T10:17:23.760Z,416.80
2018-04-22T10:19:57.372Z,476.50
2018-04-22T10:22:32.817Z,460.13
2018-04-22T10:25:07.152Z,427.90
2018-04-22T10:27:41.293Z,421.03
2018-04-22T10:30:15.639Z,479.42
2018-04-22T10:32:49.737Z,517.23
2018-04-22T10:35:55.034Z,436.90
2018-04-22T10:38:28.450Z,529.20
2018-04-22T10:41:00.481Z,530.80
2018-04-22T10:43:35.535Z,549.10
2018-04-22T10:46:08.200Z,423.60
2018-04-22T10:48:40.935Z,571.83
2018-04-22T10:51:16.273Z,525.33
2018-04-22T10:53:49.216Z,563.15
2018-04-22T10:56:21.434Z,532.03
2018-04-22T10:58:57.617Z,406.42
2018-04-22T11:01:30.660Z,569.53
2018-04-22T11:04:04.238Z,572.20
2018-04-22T11:06:37.443Z,461.90
2018-04-22T11:09:11.259Z,537.38
2018-04-22T11:11:44.861Z,360.65
2018-04-22T11:14:18.935Z,473.55
2018-04-22T11:16:51.553Z,496.77
2018-04-22T11:19:25.338Z,547.97
2018-04-22T11:21:59.079Z,428.55
2018-04-22T11:24:31.121Z,631.13
2018-04-22T11:27:06.013Z,622.53
2018-04-22T11:29:38.354Z,559.75
2018-04-22T11:32:10.855Z,634.00
2018-04-22T11:34:45.693Z,554.53
2018-04-22T11:37:18.255Z,478.55
2018-04-22T11:39:52.367Z,651.92
2018-04-22T11:42:26.111Z,603.20
2018-04-22T11:45:00.060Z,593.53
2018-04-22T11:47:34.240Z,642.90
2018-04-22T11:50:08.814Z,563.47
2018-04-22T11:52:42.019Z,572.72
2018-04-22T11:55:15.116Z,603.83
2018-04-22T11:57:47.653Z,570.45
2018-04-22T12:00:21.655Z,536.00
2018-04-22T12:02:55.334Z,502.25
2018-04-22T12:05:31.095Z,420.98
2018-04-22T12:08:05.678Z,511.08
2018-04-22T12:10:38.394Z,604.45
2018-04-22T12:13:11.016Z,468.45
2018-04-22T12:15:43.476Z,431.65
2018-04-22T12:18:17.598Z,440.88
2018-04-22T12:20:51.160Z,411.60
2018-04-22T12:23:25.959Z,594.28
2018-04-22T12:26:01.120Z,564.58
2018-04-22T12:28:36.697Z,617.33
2018-04-22T12:31:08.917Z,424.83
2018-04-22T12:33:43.658Z,443.90
2018-04-22T12:36:18.341Z,516.47
2018-04-22T12:38:55.035Z,424.40
2018-04-22T12:41:29.214Z,615.78
2018-04-22T12:44:03.012Z,506.35
2018-04-22T12:46:35.838Z,492.58
2018-04-22T12:49:09.478Z,459.98
2018-04-22T12:51:43.676Z,403.85
2018-04-22T12:54:18.714Z,559.22
2018-04-22T12:56:52.818Z,509.45
2018-04-22T12:59:26.139Z,588.47
2018-04-22T13:01:58.799Z,489.95
2018-04-22T13:04:31.642Z,515.40
2018-04-22T13:07:06.082Z,316.98
2018-04-22T13:09:38.596Z,494.13
2018-04-22T13:12:13.267Z,492.87
2018-04-22T13:14:47.036Z,432.95
2018-04-22T13:17:20.735Z,439.63
2018-04-22T13:19:52.956Z,583.53
2018-04-22T13:22:26.436Z,489.20
2018-04-22T13:25:00.470Z,520.30
2018-04-22T13:27:40.181Z,534.17
2018-04-22T13:30:12.838Z,483.65
2018-04-22T13:32:45.419Z,618.72
2018-04-22T13:35:19.153Z,598.62
2018-04-22T13:37:52.182Z,586.17
2018-04-22T13:40:26.917Z,584.63
2018-04-22T13:43:00.257Z,435.63
2018-04-22T13:45:34.238Z,546.15
2018-04-22T13:48:07.742Z,587.60
2018-04-22T13:50:43.810Z,561.33
2018-04-22T13:53:18.166Z,534.95
2018-04-22T13:55:55.192Z,472.60
2018-04-22T13:58:31.331Z,444.40
2018-04-22T14:01:07.779Z,421.70
2018-04-22T14:03:41.873Z,293.70
2018-04-22T14:06:15.975Z,419.42
2018-04-22T14:08:54.913Z,469.10
2018-04-22T14:11:31.036Z,539.70
2018-04-22T14:14:04.613Z,457.92
2018-04-22T14:16:38.154Z,437.42
2018-04-22T14:19:12.163Z,531.47
2018-04-22T14:21:49.035Z,495.65
2018-04-22T14:24:21.474Z,471.30
2018-04-22T14:26:56.298Z,344.48
2018-04-22T14:29:30.773Z,567.65
2018-04-22T14:32:04.093Z,539.35
2018-04-22T14:34:40.799Z,509.58
2018-04-22T14:37:16.715Z,504.55
2018-04-22T14:39:50.957Z,478.77
2018-04-22T14:42:27.333Z,561.30
2018-04-22T14:45:16.059Z,491.83
2018-04-22T14:47:48.908Z,437.45
2018-04-22T14:50:21.671Z,526.33
2018-04-22T14:52:58.616Z,384.50
2018-04-22T14:55:33.876Z,554.55
2018-04-22T14:58:08.617Z,503.40
2018-04-22T15:00:40.092Z,451.70
2018-04-22T15:03:14.232Z,442.55
2018-04-22T15:05:47.533Z,566.50
2018-04-22T15:08:22.777Z,449.38
2018-04-22T15:10:55.818Z,321.35
2018-04-22T15:13:28.102Z,513.40
2018-04-22T15:16:01.738Z,456.77
2018-04-22T15:57:06.912Z,392.48
2018-04-22T15:59:40.938Z,386.85
2018-04-22T16:02:13.648Z,345.30
2018-04-22T16:04:48.879Z,354.80
2018-04-22T16:07:21.696Z,358.20
2018-04-22T16:09:56.529Z,255.93
2018-04-22T16:12:31.240Z,370.80
2018-04-22T16:15:04.093Z,192.80
2018-04-22T16:17:39.617Z,365.40
2018-04-22T17:22:50.268Z,274.23
2018-04-22T17:25:23.623Z,230.73
2018-04-22T17:27:56.868Z,287.80
2018-04-22T17:30:30.224Z,261.07
2018-04-22T17:33:05.298Z,239.17
2018-04-22T17:35:37.843Z,253.10
2018-04-22T17:38:12.705Z,260.77
2018-04-22T17:40:45.421Z,240.77
2018-04-22T17:43:19.764Z,234.53
2018-04-22T17:45:55.541Z,189.40
2018-04-22T17:48:28.540Z,229.47
2018-04-22T17:51:01.285Z,190.13
2018-04-22T17:53:34.460Z,261.27
2018-04-22T17:56:07.425Z,291.07
2018-04-22T17:58:40.102Z,193.33
2018-04-22T18:01:13.686Z,202.13
2018-04-22T18:03:46.985Z,180.90
2018-04-22T18:06:23.524Z,269.83
2018-04-22T18:08:57.923Z,207.17
2018-04-22T18:11:34.945Z,320.63
2018-04-22T18:14:09.843Z,177.10
2018-04-22T18:16:44.121Z,195.73
2018-04-22T18:19:17.802Z,240.87
2018-04-22T19:30:05.983Z,171.00
2018-04-22T19:32:40.322Z,138.73
2018-04-22T19:35:14.704Z,167.20
2018-04-22T19:37:47.685Z,178.10
2018-04-22T19:40:20.471Z,189.93
2018-04-22T22:31:09.057Z,129.73
2018-04-22T22:33:40.817Z,136.07
2018-04-22T22:36:11.362Z,194.33
2018-04-22T22:38:42.030Z,137.87
2018-04-22T22:41:14.807Z,154.43
2018-04-22T22:43:47.897Z,164.07
2018-04-22T22:46:20.036Z,151.33
2018-04-22T22:48:52.581Z,137.37
2018-04-22T22:51:25.489Z,161.33
2018-04-22T22:53:59.022Z,149.37
2018-04-22T22:56:31.624Z,144.13
2018-04-22T22:59:04.365Z,166.53
2018-04-22T23:01:37.681Z,155.70
2018-04-22T23:04:10.444Z,135.80
2018-04-22T23:06:43.065Z,138.63
2018-04-22T23:09:20.704Z,140.60
2018-04-22T23:11:53.154Z,124.97
2018-04-22T23:14:28.101Z,127.00
2018-04-22T23:17:01.608Z,121.87
2018-04-22T23:19:34.501Z,124.20
2018-04-22T23:22:06.642Z,120.33
2018-04-22T23:24:39.321Z,124.93
2018-04-22T23:27:12.046Z,122.03
2018-04-22T23:29:43.940Z,125.67
2018-04-22T23:32:16.924Z,120.93
2018-04-22T23:34:49.444Z,121.00
2018-04-22T23:37:21.408Z,129.73
2018-04-22T23:39:54.524Z,139.90
2018-04-22T23:42:27.382Z,115.83
2018-04-22T23:45:00.648Z,123.03
2018-04-22T23:47:34.843Z,123.43
2018-04-22T23:50:07.183Z,115.40
2018-04-22T23:52:39.782Z,112.27
2018-04-22T23:55:12.164Z,111.97
2018-04-22T23:57:44.741Z,110.13
